Weather observations for the past three days for
Marion Municipal Airport
Metric (Imperial)
Date Time (edt) Wind (kph) Vis. (km) Weather Sky Cond. Temperature (ºC) Relative Humidity Wind Chill (°C) Heat Index (°C) Pressure Precipitation (cm)
Air Dwpt 6 hour altimeter (cm) sea level (mb) 1 hr 3 hr 6 hr
Max. Min.
10 02:35 N 13 16.09 Overcast OVC095 13.3 3.4 51% 75.92 0.0
10 02:15 N 9 16.09 Overcast OVC095 13.6 3.6 51% 75.9 0.0
10 01:55 N 9 16.09 Overcast OVC095 13.8 4.4 27 0.6 53% 75.9 0.0
10 01:35 N 9 16.09 Overcast OVC095 14.3 3.1 47% 75.87 0.0
10 01:15 N 11 16.09 Overcast OVC095 14.4 3.8 49% 75.84 0.0
10 00:55 N 11 16.09 Overcast BKN100 OVC120 14.8 3.6 47% 75.84 0.0
10 00:35 N 9 16.09 Mostly Cloudy BKN100 BKN120 14.8 4.2 49% 75.82 0.0
10 00:15 N 11 16.09 Mostly Cloudy SCT095 BKN110 15.8 3.4 44% 75.82 0.0
09 23:55 NW 11 16.09 Overcast BKN095 OVC110 16.6 4.7 46% 75.79 0.0
09 23:35 W 19 G 28 16.09 Mostly Cloudy SCT095 BKN110 17.1 5.1 45% 75.74 0.0
09 23:15 W 19 16.09 Mostly Cloudy BKN095 17.6 5.5 45% 75.72 0.0
09 22:55 W 19 16.09 Overcast OVC095 17.6 8.4 55% 75.72 0.0
09 22:35 W 15 16.09 Overcast BKN085 OVC110 18.2 9.1 56% 75.69 0.0
09 22:15 SW 15 16.09 Overcast SCT085 OVC100 18.1 10.4 61% 75.67 0.0
09 21:55 SW 13 16.09 Overcast OVC100 18.1 10.3 61% 75.64 0.0
09 21:35 W 17 16.09 Overcast OVC100 18.6 10.1 58% 75.62 0.0
09 21:15 W 20 G 37 16.09 Overcast OVC100 18.8 10.5 59% 75.59 0.0
09 20:55 W 19 16.09 Overcast OVC110 19.4 10.1 55% 75.57 0.0
09 20:35 SW 20 16.09 Overcast OVC110 19.7 10.2 54% 75.54 0.0
09 20:15 SW 24 16.09 Partly Cloudy SCT100 20 10.3 54% 75.51 0.0
09 19:55 SW 20 16.09 Fair CLR 20.1 10.1 27 0.6 53% 75.51 0.0
09 19:35 SW 19 16.09 Fair CLR 20.5 8.9 47% 75.49 0.0
09 19:15 W 28 16.09 Partly Cloudy SCT100 20.8 9.9 50% 75.51 0.0
09 18:55 W 26 G 37 16.09 Mostly Cloudy BKN100 20.6 10.2 51% 75.51 0.0
09 18:35 W 28 G 43 16.09 Partly Cloudy SCT110 21.2 9.2 46% 75.49 0.0
09 18:15 W 33 G 41 16.09 Partly Cloudy and Breezy SCT100 21.9 8.5 42% 75.49 0.0
09 17:55 W 37 G 46 16.09 Partly Cloudy and Breezy SCT100 21.7 8.8 44% 75.46 0.0
09 17:35 W 33 G 44 16.09 Fair and Breezy CLR 22.1 9.4 44% 75.46 0.0
09 17:15 W 33 G 46 11.27 Fair and Breezy CLR 22 9.3 44% 75.46 0.0
09 16:55 W 37 G 52 11.27 Partly Cloudy and Breezy SCT050 22 9 44% 75.49 0.0
09 16:35 W 35 G 44 16.09 Fair and Breezy CLR 21.8 8.8 44% 75.49 0.0
09 16:15 SW 35 G 50 16.09 Partly Cloudy and Breezy SCT045 21.7 9.3 45% 75.49 0.0
09 15:55 W 35 G 44 16.09 Partly Cloudy and Breezy SCT043 21.8 9.9 47% 75.51 0.0
09 15:35 SW 30 G 43 16.09 Fair CLR 21.5 10.9 51% 75.49 0.0
09 15:15 SW 33 G 44 16.09 Fair and Breezy CLR 21.1 10.7 52% 75.51 0.0
09 14:50 SW 26 G 41 16.09 Fair CLR 20.7 10.9 54% 75.51 0.0
09 14:35 SW 31 G 39 8.05 Fair with Haze CLR 20.4 11.3 56% 75.54 0.0
09 14:15 W 26 G 41 16.09 Fair CLR 20.2 11.5 58% 75.51 0.0
09 13:35 W 30 G 37 16.09 Partly Cloudy SCT028 19.4 11.2 59% 75.57 0.0
09 13:15 SW 30 G 39 16.09 Partly Cloudy SCT026 19 11.2 61% 75.57 0.0
09 12:55 SW 26 G 41 16.09 Partly Cloudy SCT024 18.6 11.3 63% 75.57 0.0
09 12:35 SW 33 G 41 16.09 Partly Cloudy and Breezy SCT024 18.3 11.5 65% 75.57 0.0
09 12:15 SW 28 G 39 16.09 Partly Cloudy SCT022 17.7 11.4 67% 75.57 0.0
09 11:55 SW 30 G 37 16.09 Mostly Cloudy BKN022 17.4 11.3 68% 75.57 0.0
09 11:35 SW 28 G 39 16.09 Partly Cloudy SCT022 17.1 11.1 68% 75.57 0.0
09 11:15 SW 30 G 35 16.09 Partly Cloudy SCT022 16.7 10.9 69% 75.57 0.0
09 10:55 SW 22 G 33 16.09 Partly Cloudy SCT020 16.6 10.8 69% 75.57 0.0
09 10:35 W 22 16.09 Partly Cloudy SCT020 16.1 10.6 70% 75.57 0.0
09 10:15 SW 24 G 30 16.09 Partly Cloudy SCT022 15.7 10.5 71% 75.57 0.0
09 09:55 W 22 11.27 Fair CLR 15.3 10.6 74% 75.57 0.0
09 09:15 SW 19 16.09 Fair CLR 14 10.9 82% 75.57 0.0
09 08:55 SW 13 16.09 Partly Cloudy SCT021 13.3 10.6 84% 75.57 0.0
09 08:35 SW 13 16.09 Mostly Cloudy BKN021 12.8 10.7 87% 75.57 0.0
09 08:15 SW 11 16.09 Partly Cloudy SCT023 12.3 10.6 89% 75.59 0.0
09 07:55 SW 11 16.09 Partly Cloudy SCT023 12 10.4 27 0.6 90% 75.59 0.0
09 07:35 SW 11 16.09 Partly Cloudy SCT009 11.7 10.2 91% 75.57 0.0
09 07:15 SW 9 16.09 Overcast OVC009 12 10.2 89% 75.54 0.0
09 06:55 SW 11 16.09 Overcast OVC009 11.7 10.4 92% 75.54 0.0
09 06:35 SW 9 16.09 Overcast OVC009 11.2 10.1 93% 75.54 0.0
09 06:15 SW 9 16.09 Overcast OVC009 10.5 9.5 94% 75.57 0.0
09 05:35 S 9 16.09 Fair CLR 10.3 9.3 94% 75.54 0.0
09 05:15 S 9 16.09 Fair CLR 10.4 9.3 93% 75.54 0.0
09 04:55 SW 9 11.27 Fair CLR 10.5 9.4 93% 75.54 0.0
09 04:35 SW 7 16.09 Fair CLR 10.9 9.8 93% 75.54 0.0
09 04:15 S 7 11.27 Fair CLR 10.9 9.7 92% 75.54 0.0
09 03:55 SW 9 11.27 Fair CLR 11 9.8 92% 75.57 0.0
09 03:35 SW 9 11.27 Fair CLR 11.1 9.9 92% 75.57 0.0
09 03:15 SW 9 16.09 Partly Cloudy SCT011 11.2 10 92% 75.59 0.0
09 02:55 SW 9 16.09 Partly Cloudy SCT011 11.4 10 91% 75.62 0.0
09 02:35 SW 9 16.09 Fair CLR 11.4 10 91% 75.62 0.0
09 02:15 SW 13 16.09 Fair CLR 11.2 9.9 92% 75.64 0.0
09 01:55 SW 9 16.09 Fair CLR 11.3 9.8 27 0.6 91% 75.64 0.0
09 01:35 S 11 16.09 Fair CLR 11.3 9.9 91% 75.67 0.0
09 01:15 SW 11 16.09 Fair CLR 11.4 10 91% 75.64 0.0
09 00:55 SW 9 16.09 Partly Cloudy SCT016 11.4 10.2 92% 75.64 0.0
09 00:35 S 9 16.09 Overcast OVC016 11.2 10.1 93% 75.67 0.0
09 00:15 SW 6 16.09 Overcast BKN014 OVC080 11.5 10.1 91% 75.64 0.0
08 23:55 Calm 6.44 Fog/Mist SCT014 BKN080 11.5 10.1 91% 75.64 0.0
08 23:35 S 7 16.09 Mostly Cloudy SCT014 BKN080 11.8 10.2 90% 75.67 0.0
08 23:15 SW 9 16.09 Mostly Cloudy BKN014 BKN080 12 10.3 89% 75.67 0.0
08 22:55 SW 9 16.09 Overcast OVC014 11.8 10.3 91% 75.69 0.0
08 22:35 S 9 16.09 Mostly Cloudy BKN016 BKN080 11.8 10.3 91% 75.67 0.0
08 22:15 SW 9 16.09 Partly Cloudy SCT016 11.7 10.3 91% 75.67 0.0
08 21:55 S 11 16.09 Partly Cloudy SCT021 12 10.5 91% 75.67 0.0
08 21:35 S 13 16.09 Overcast OVC019 12 10.4 90% 75.67 0.0
08 21:15 SW 11 16.09 Overcast BKN019 BKN024 OVC090 12 10.2 89% 75.69 0.0
08 20:55 SW 13 16.09 Overcast OVC100 11.9 10.1 89% 75.69 0.0
08 20:35 SW 13 3.22 Fog/Mist SCT041 BKN060 OVC100 12.1 10.2 88% 75.69 0.0
08 20:15 S 15 16.09 Overcast SCT042 BKN065 OVC075 12.2 10.5 89% 75.69 0.0
08 19:55 S 9 16.09 Overcast SCT024 BKN043 OVC080 12.5 10.6 27 0.6 88% 75.69 0.0 0.41
08 19:35 SW 13 16.09 Overcast BKN026 OVC037 12.5 10.7 89% 75.72 0.0
08 19:15 S 15 16.09 Overcast BKN030 BKN037 OVC043 12.5 10.8 89% 75.69 0.0
08 18:55 SW 11 16.09 Overcast SCT032 BKN045 OVC065 12.5 10.7 89% 75.69 0.0 0.03
08 18:35 SW 9 16.09 Overcast SCT049 OVC065 12.5 10.4 87% 75.72 0.0 0.03
08 18:15 SW 13 11.27 Overcast OVC065 12.5 10.4 87% 75.69 0.0 0.03
08 17:55 SW 15 8.05 Light Rain OVC065 12.5 10.4 87% 75.69 0.0 0.13
08 17:35 SW 11 8.05 Light Rain OVC065 12.7 10.3 85% 75.72 0.0 0.1
08 17:15 W 13 8.05 Light Rain SCT050 OVC065 12.9 10.5 85% 75.74 0.0 0.05
08 16:55 W 20 6.44 Light Rain SCT037 BKN050 OVC065 13.2 10.3 83% 75.77 0.0 0.18 0.25
08 16:35 SW 17 8.05 Light Rain BKN050 OVC060 13.4 10.4 82% 75.77 0.0 0.1
08 16:15 W 20 8.05 Rain BKN042 OVC050 13.4 10 80% 75.79 0.0 0.08
08 15:55 W 22 8.05 Light Rain BKN044 OVC050 13.8 9.5 75% 75.79 0.0 0.08
08 15:35 W 24 16.09 Light Rain BKN046 OVC060 14.3 9.1 71% 75.79 0.0 0.05
08 15:15 W 26 16.09 Light Rain SCT039 BKN050 OVC060 14.7 9 69% 75.79 0.0 0.03
08 14:55 SW 24 G 31 8.05 Overcast with Haze OVC050 15.4 8.4 63% 75.82 0.0
08 14:35 SW 33 G 41 11.27 Overcast and Breezy BKN050 BKN070 OVC080 17.4 6.7 50% 75.79 0.0
08 14:15 W 24 G 41 16.09 Mostly Cloudy SCT050 SCT070 BKN090 18.4 6.1 45% 75.79 0.0
08 13:55 SW 26 G 31 16.09 Mostly Cloudy BKN090 17.9 6.1 27 0.6 46% 75.82 0.0
08 13:35 SW 31 G 39 16.09 Partly Cloudy SCT090 SCT110 18 6.6 47% 75.82 0.0
08 13:15 SW 22 16.09 Partly Cloudy SCT075 SCT090 SCT110 16.9 6.2 50% 75.87 0.0
08 12:55 W 20 16.09 Mostly Cloudy SCT075 BKN090 BKN110 16.2 6.2 52% 75.9 0.0
08 12:35 SW 17 11.27 Mostly Cloudy SCT075 BKN085 BKN110 16.1 6.1 52% 75.92 0.0
08 12:15 SW 15 16.09 Mostly Cloudy SCT075 SCT085 BKN110 15.8 5.5 51% 75.92 0.0
08 11:55 SW 17 11.27 Mostly Cloudy BKN100 15.3 5.3 52% 75.95 0.0
08 11:35 SW 19 16.09 Partly Cloudy SCT070 SCT090 14.5 5.1 54% 75.95 0.0
08 11:15 SW 20 8.05 Mostly Cloudy with Haze BKN070 BKN080 13.8 4.5 54% 76 0.0
08 10:55 SW 19 16.09 Mostly Cloudy BKN070 BKN080 13.4 4.6 56% 76 0.0
08 10:35 SW 19 16.09 Mostly Cloudy SCT060 BKN080 BKN100 12.6 4.4 58% 76 0.0
08 10:15 W 19 G 28 16.09 Overcast BKN060 BKN070 OVC085 11.9 4.3 60% 76.02 0.0
08 09:55 SW 15 16.09 Overcast BKN060 BKN085 OVC110 11.9 4.7 62% 76.02 0.0
08 09:35 SW 17 16.09 Overcast SCT060 SCT085 OVC110 11.9 4.9 63% 76 0.0
08 09:15 SW 15 16.09 Overcast SCT060 OVC095 11.4 4.7 64% 76 0.0
08 08:55 SW 13 16.09 Overcast SCT060 OVC085 10.5 4.3 66% 76 0.0
08 08:35 SW 13 16.09 Overcast BKN060 OVC095 10.2 4.1 66% 76 0.0
08 08:15 SW 13 16.09 Overcast OVC060 9.8 4.4 69% 8 76 0.0
08 07:55 SW 13 11.27 Overcast OVC060 9.5 4.5 27 0.6 71% 8 76 0.0
08 07:35 SW 13 16.09 Overcast OVC060 9.2 4.6 73% 7 76 0.0
08 07:15 SW 15 16.09 Overcast BKN060 BKN080 OVC090 9.6 3.9 68% 8 75.97 0.0
08 06:55 SW 15 11.27 Overcast OVC100 9.9 3.3 64% 8 75.97 0.0
08 06:35 SW 22 16.09 Overcast SCT065 OVC100 9.8 3.3 64% 7 75.97 0.0
08 06:15 SW 26 16.09 Overcast SCT065 SCT075 OVC100 9.9 3.4 64% 7 75.95 0.0
08 05:55 SW 26 16.09 Overcast SCT055 SCT075 OVC100 9.8 3.7 66% 7 75.95 0.0
08 05:35 W 22 G 28 16.09 Overcast SCT060 SCT075 OVC110 9.8 3.6 66% 7 76 0.0
08 05:15 SW 17 G 28 16.09 Overcast SCT060 BKN075 OVC120 9.8 3.9 67% 8 75.97 0.0
08 04:55 SW 17 16.09 Mostly Cloudy BKN075 8.8 4.1 73% 7 75.97 0.0
08 04:35 SW 17 16.09 Fair CLR 9.3 3.3 66% 7 75.97 0.0
08 04:15 SW 19 G 31 11.27 Partly Cloudy SCT120 9.4 3 65% 7 75.97 0.0
08 03:55 SW 20 6.44 Partly Cloudy with Haze SCT120 9.2 3 65% 7 75.97 0.0
08 03:35 SW 20 16.09 Partly Cloudy SCT090 9.2 3.1 66% 7 75.97 0.0
08 03:15 SW 19 16.09 Mostly Cloudy SCT065 SCT090 BKN120 9.1 3 66% 7 75.97 0.0
08 02:55 SW 17 16.09 Overcast BKN065 OVC110 8.4 3.5 72% 6 76 0.0
08 02:35 SW 13 16.09 Mostly Cloudy SCT065 BKN085 BKN120 7.7 3.5 75% 6 76 0.0
08 02:15 SW 11 16.09 Mostly Cloudy SCT075 BKN085 7.8 3.7 76% 6 76 0.0
08 01:55 S 11 16.09 Mostly Cloudy BKN080 7.5 3.7 27 0.6 77% 6 76 0.0
08 01:35 S 9 16.09 Partly Cloudy SCT065 7.5 3.9 78% 6 76.02 0.0
08 01:15 S 7 16.09 Partly Cloudy SCT065 SCT090 7.7 4 78% 7 76.02 0.0
08 00:55 S 9 16.09 Mostly Cloudy SCT065 BKN075 7.7 3.9 77% 6 76.02 0.0
08 00:35 S 7 16.09 Fair CLR 7.5 3.8 78% 6 76.02 0.0
08 00:15 SW 11 16.09 Partly Cloudy SCT070 8.7 3.7 71% 7 76.02 0.0
07 23:55 SW 7 16.09 Partly Cloudy SCT070 8.7 3.9 72% 8 76.02 0.0
07 23:35 Calm 16.09 Mostly Cloudy SCT070 BKN080 8.7 4.2 74% 76.02 0.0
07 23:15 W 6 16.09 Overcast OVC075 8.4 4.4 76% 76.02 0.0
07 22:55 SW 11 16.09 Mostly Cloudy SCT075 BKN095 8.2 4.4 77% 7 76 0.0
07 22:35 S 11 16.09 Partly Cloudy SCT070 SCT095 8.3 4.6 78% 7 76 0.0
07 22:15 S 11 16.09 Fair CLR 8.5 4.7 77% 7 75.97 0.0
07 21:55 S 11 16.09 Partly Cloudy SCT080 8.5 4.7 77% 7 75.97 0.0
07 21:35 S 9 16.09 Mostly Cloudy BKN080 9.2 4.7 74% 8 75.97 0.0
07 21:15 S 13 16.09 Overcast OVC080 9.4 4.9 74% 8 75.97 0.0
07 20:55 S 11 16.09 Mostly Cloudy BKN080 9.5 4.8 73% 8 75.97 0.0
07 20:35 S 13 16.09 Mostly Cloudy SCT080 BKN085 9.9 4.7 70% 8 75.97 0.0
07 20:15 S 11 16.09 Overcast OVC090 10.1 4.8 70% 76 0.0
07 19:55 SW 13 16.09 Overcast OVC090 10.3 4.3 27 0.6 67% 76.02 0.0
07 19:35 SW 13 16.09 Overcast OVC090 10.4 4.2 66% 76.02 0.0
07 19:15 W 19 16.09 Mostly Cloudy BKN090 10.6 4.5 66% 76.05 0.0
07 18:55 W 20 16.09 Mostly Cloudy SCT029 SCT039 BKN090 10.5 4.8 68% 76.05 0.0
07 18:35 W 26 G 44 6.44 Light Rain SCT039 BKN045 OVC055 11.7 1.7 51% 76.1 0.0
07 18:15 NW 26 11.27 Overcast SCT060 OVC070 13.3 -0.5 39% 76.05 0.0
07 17:55 W 24 16.09 Mostly Cloudy SCT060 BKN070 BKN095 13.9 -1.1 36% 76.02 0.0
07 17:35 W 28 16.09 Mostly Cloudy BKN070 14 -1 36% 76 0.0
07 17:15 W 22 16.09 Mostly Cloudy BKN070 BKN080 14 -1.5 35% 76 0.0
07 16:55 W 24 G 33 16.09 Mostly Cloudy BKN070 BKN080 14.1 -1.4 35% 76 0.0
07 16:35 SW 17 G 31 16.09 Partly Cloudy SCT065 SCT080 14.5 -2.2 32% 76.02 0.0
07 16:15 W 11 16.09 Mostly Cloudy BKN080 14.2 -2.3 32% 76.05 0.0
07 15:55 SW 19 G 28 16.09 Partly Cloudy SCT060 SCT090 14.1 -2.7 31% 76.05 0.0
07 15:35 W 7 G 26 16.09 Partly Cloudy SCT060 SCT090 14.4 -2.3 32% 76.07 0.0
07 15:15 W 26 G 33 16.09 Partly Cloudy SCT060 14.3 -1.4 34% 76.1 0.0
07 14:55 W 20 G 28 16.09 Partly Cloudy SCT060 13.8 -1.7 34% 76.1 0.0
07 14:35 W 24 G 31 11.27 Partly Cloudy SCT060 13.4 -1.7 35% 76.1 0.0
07 14:15 W 15 11.27 Partly Cloudy SCT060 13.2 -1.7 36% 76.12 0.0
07 13:55 W 19 G 31 16.09 Partly Cloudy SCT060 13.2 -1.2 27 0.6 37% 76.12 0.0
07 13:35 W 22 G 31 16.09 Fair CLR 12.4 -1.4 39% 76.15 0.0
07 13:15 NW 19 G 31 16.09 Fair CLR 12.6 -0.7 40% 76.17 0.0
07 12:55 W 22 G 28 11.27 Fair CLR 12.3 -0.5 42% 76.2 0.0
07 12:35 W 22 16.09 Fair CLR 11.6 -1.3 41% 76.2 0.0
07 12:15 NW 17 G 31 16.09 Fair CLR 11.1 -1.8 41% 76.23 0.0
07 11:55 NW 15 G 26 16.09 Fair CLR 10.8 -1.6 42% 76.23 0.0
07 11:35 W 15 16.09 Fair CLR 10.4 -1.3 44% 76.23 0.0
07 11:15 NW 13 G 28 16.09 Fair CLR 10 -2 43% 8 76.2 0.0
07 10:55 W 17 16.09 Fair CLR 9.9 -1.6 45% 8 76.23 0.0
07 10:35 W 13 16.09 Fair CLR 9.2 -1.3 48% 7 76.2 0.0
07 10:15 W 20 11.27 Fair CLR 8.7 -1.4 49% 6 76.23 0.0
07 09:55 W 17 16.09 Fair CLR 8.1 -1.2 52% 6 76.23 0.0
07 09:35 W 13 16.09 Fair CLR 7.6 -0.5 57% 6 76.23 0.0
07 09:15 W 11 11.27 Fair CLR 6.9 -0.3 60% 5 76.2 0.0
07 08:55 W 9 16.09 Fair CLR 6.1 0 65% 4 76.2 0.0
07 08:35 NW 9 16.09 Fair CLR 5.5 0.2 69% 4 76.2 0.0
07 08:10 NW 9 16.09 Fair CLR 4.9 0.2 72% 3 76.2 0.0
07 07:55 Calm 16.09 Fair CLR 4.2 0.2 27 0.6 75% 76.2 0.0
07 07:35 Calm 16.09 Fair CLR 3.8 0.1 77% 76.2 0.0
07 07:15 Calm 16.09 Fair CLR 3.5 -0.1 78% 76.17 0.0
07 06:55 Calm 16.09 Fair CLR 3.3 -0.3 78% 76.17 0.0
07 06:35 Calm 16.09 Fair CLR 3.5 -0.6 75% 76.15 0.0
07 06:15 Calm 16.09 Fair CLR 3.8 -1.1 71% 76.17 0.0
07 05:55 Calm 16.09 Fair CLR 3.7 -1.1 71% 76.15 0.0
07 05:35 NW 6 16.09 Fair CLR 3.5 -0.9 73% 76.15 0.0
07 05:15 NW 6 16.09 Fair CLR 3.5 -0.8 74% 76.15 0.0
07 04:55 NW 7 16.09 Fair CLR 3.7 -0.9 72% 2 76.15 0.0
07 04:35 NW 9 16.09 Fair CLR 4 -0.9 71% 2 76.12 0.0
07 04:15 NW 9 16.09 Fair CLR 4.2 -0.8 70% 2 76.15 0.0
07 03:55 NW 7 16.09 Fair CLR 4.1 -0.2 74% 3 76.15 0.0
07 03:35 NW 9 16.09 Fair CLR 4.1 -0.1 74% 2 76.15 0.0
07 03:15 NW 9 16.09 Fair CLR 4 0 75% 2 76.15 0.0
Date Time (edt) Wind (kph) Vis. (km) Weather Sky Cond. Air Dwpt Max. Min. Relative Humidity Wind Chill (°C) Heat Index (°C) altimeter (cm) sea level (mb) 1 hr 3 hr 6 hr
6 hour
Temperature (ºC) Pressure Precipitation (cm)